createdAt,value
2018-06-21T00:02:00.003Z,2.90
2018-06-21T00:04:28.292Z,2.47
2018-06-21T00:06:56.621Z,2.50
2018-06-21T00:09:24.918Z,2.67
2018-06-21T00:11:53.266Z,2.60
2018-06-21T00:14:21.551Z,2.67
2018-06-21T00:16:49.906Z,2.57
2018-06-21T00:19:18.242Z,3.10
2018-06-21T00:21:46.566Z,2.80
2018-06-21T00:24:14.873Z,2.67
2018-06-21T00:26:43.233Z,2.37
2018-06-21T00:29:11.540Z,2.73
2018-06-21T00:31:39.858Z,2.70
2018-06-21T00:34:08.158Z,2.70
2018-06-21T00:36:36.468Z,2.60
2018-06-21T00:39:06.314Z,2.60
2018-06-21T00:41:34.647Z,2.73
2018-06-21T00:44:02.974Z,2.67
2018-06-21T00:46:31.295Z,2.63
2018-06-21T00:48:59.586Z,2.43
2018-06-21T00:51:27.922Z,2.57
2018-06-21T00:53:56.237Z,3.17
2018-06-21T00:56:24.527Z,2.87
2018-06-21T00:58:52.854Z,2.90
2018-06-21T01:01:21.177Z,2.83
2018-06-21T01:03:49.465Z,2.80
2018-06-21T01:06:17.783Z,3.00
2018-06-21T01:08:46.130Z,3.00
2018-06-21T01:11:14.443Z,2.83
2018-06-21T01:13:42.781Z,2.43
2018-06-21T01:16:11.325Z,2.97
2018-06-21T01:18:39.621Z,2.77
2018-06-21T01:21:07.927Z,3.00
2018-06-21T01:23:36.308Z,2.70
2018-06-21T01:26:04.712Z,2.77
2018-06-21T01:28:33.041Z,3.27
2018-06-21T01:31:01.391Z,2.70
2018-06-21T01:33:29.712Z,3.20
2018-06-21T01:35:58.000Z,2.93
2018-06-21T01:38:26.346Z,3.20
2018-06-21T01:40:54.674Z,2.43
2018-06-21T01:43:22.991Z,3.03
2018-06-21T01:45:51.270Z,2.90
2018-06-21T01:48:19.582Z,2.70
2018-06-21T01:50:47.907Z,3.17
2018-06-21T01:53:16.224Z,2.77
2018-06-21T01:55:44.562Z,2.90
2018-06-21T01:58:12.858Z,3.07
2018-06-21T02:00:41.181Z,3.13
2018-06-21T02:03:09.500Z,3.10
2018-06-21T02:05:37.816Z,3.53
2018-06-21T02:08:06.184Z,3.80
2018-06-21T02:10:34.454Z,3.00
2018-06-21T02:13:02.949Z,3.50
2018-06-21T02:15:31.284Z,3.10
2018-06-21T02:17:59.632Z,3.00
2018-06-21T02:20:27.928Z,3.40
2018-06-21T02:22:56.236Z,3.97
2018-06-21T02:25:24.536Z,3.60
2018-06-21T02:27:52.825Z,3.50
2018-06-21T02:30:21.143Z,3.10
2018-06-21T02:32:49.426Z,3.40
2018-06-21T02:35:17.750Z,2.40
2018-06-21T02:37:46.047Z,3.73
2018-06-21T02:40:14.350Z,3.37
2018-06-21T02:42:42.649Z,4.07
2018-06-21T02:45:11.053Z,3.30
2018-06-21T02:47:39.339Z,3.27
2018-06-21T02:50:07.703Z,3.60
2018-06-21T02:52:36.000Z,3.17
2018-06-21T02:55:04.356Z,3.30
2018-06-21T02:57:32.658Z,3.20
2018-06-21T03:00:00.978Z,3.27
2018-06-21T03:02:29.276Z,3.43
2018-06-21T03:04:57.611Z,3.47
2018-06-21T03:07:25.907Z,3.83
2018-06-21T03:09:54.271Z,4.00
2018-06-21T03:12:23.600Z,3.53
2018-06-21T03:14:53.206Z,3.13
2018-06-21T03:17:21.860Z,4.80
2018-06-21T03:19:50.371Z,3.30
2018-06-21T03:22:18.702Z,3.23
2018-06-21T03:24:47.014Z,4.00
2018-06-21T03:27:15.309Z,3.80
2018-06-21T03:29:43.580Z,3.87
2018-06-21T03:32:11.910Z,4.07
2018-06-21T03:34:40.241Z,3.67
2018-06-21T03:37:08.618Z,4.00
2018-06-21T03:39:36.902Z,3.20
2018-06-21T03:42:05.231Z,3.40
2018-06-21T03:44:33.540Z,3.13
2018-06-21T03:47:01.905Z,3.63
2018-06-21T03:49:30.199Z,3.37
2018-06-21T03:51:58.498Z,4.07
2018-06-21T03:54:26.791Z,3.93
2018-06-21T03:56:55.192Z,11.33
2018-06-21T03:59:23.472Z,10.93
2018-06-21T04:01:51.788Z,6.80
2018-06-21T04:04:20.088Z,6.73
2018-06-21T04:06:48.462Z,6.50
2018-06-21T04:09:16.765Z,7.10
2018-06-21T04:11:45.086Z,10.30
2018-06-21T04:14:13.373Z,6.10
2018-06-21T04:16:41.714Z,4.60
2018-06-21T04:19:10.003Z,4.23
2018-06-21T04:21:38.326Z,4.20
2018-06-21T04:24:06.625Z,5.43
2018-06-21T04:26:35.074Z,4.03
2018-06-21T04:29:03.374Z,5.43
2018-06-21T04:31:31.727Z,4.63
2018-06-21T04:34:01.381Z,4.47
2018-06-21T04:36:29.695Z,4.70
2018-06-21T04:38:58.042Z,4.50
2018-06-21T04:41:26.322Z,5.67
2018-06-21T04:43:54.634Z,4.20
2018-06-21T04:46:22.984Z,4.43
2018-06-21T04:48:52.104Z,3.90
2018-06-21T04:51:20.440Z,4.60
2018-06-21T04:53:48.766Z,3.93
2018-06-21T04:56:17.077Z,4.47
2018-06-21T04:58:45.409Z,3.97
2018-06-21T05:01:13.688Z,4.17
2018-06-21T05:03:42.006Z,3.77
2018-06-21T05:06:10.366Z,4.30
2018-06-21T05:08:38.687Z,4.37
2018-06-21T05:11:07.038Z,4.70
2018-06-21T05:13:35.349Z,4.60
2018-06-21T05:16:03.704Z,4.00
2018-06-21T05:18:32.034Z,4.43
2018-06-21T05:21:00.334Z,4.00
2018-06-21T05:23:28.643Z,4.03
2018-06-21T05:25:56.984Z,4.33
2018-06-21T05:28:25.309Z,3.63
2018-06-21T05:30:53.590Z,5.97
2018-06-21T05:33:21.916Z,3.70
2018-06-21T05:35:50.243Z,4.27
2018-06-21T05:38:18.566Z,3.90
2018-06-21T05:40:46.851Z,3.33
2018-06-21T05:43:15.166Z,3.40
2018-06-21T05:45:43.462Z,3.27
2018-06-21T05:48:11.802Z,3.80
2018-06-21T05:50:40.109Z,4.53
2018-06-21T05:53:08.625Z,3.00
2018-06-21T05:55:36.961Z,3.80
2018-06-21T05:58:05.238Z,3.20
2018-06-21T06:00:33.582Z,3.30
2018-06-21T06:03:01.857Z,2.97
2018-06-21T06:05:30.205Z,3.03
2018-06-21T06:07:58.509Z,3.30
2018-06-21T06:10:26.821Z,2.90
2018-06-21T06:12:57.724Z,3.83
2018-06-21T06:15:29.309Z,2.70
2018-06-21T06:18:00.920Z,2.97
2018-06-21T06:20:32.956Z,3.10
2018-06-21T06:23:04.691Z,3.27
2018-06-21T06:25:36.865Z,2.90
2018-06-21T06:28:08.736Z,3.00
2018-06-21T06:30:41.594Z,2.87
2018-06-21T06:33:11.798Z,2.57
2018-06-21T06:35:40.114Z,2.23
2018-06-21T06:38:12.540Z,2.20
2018-06-21T06:40:44.575Z,2.60
2018-06-21T06:43:16.146Z,2.63
2018-06-21T06:45:47.708Z,2.90
2018-06-21T06:48:19.298Z,3.27
2018-06-21T06:50:51.437Z,2.30
2018-06-21T06:53:23.384Z,3.00
2018-06-21T06:55:55.565Z,2.50
2018-06-21T06:58:26.958Z,3.60
2018-06-21T07:00:59.887Z,3.53
2018-06-21T07:03:31.633Z,2.20
2018-06-21T07:06:03.743Z,3.17
2018-06-21T07:08:35.657Z,2.67
2018-06-21T07:11:06.932Z,2.97
2018-06-21T07:13:38.760Z,2.80
2018-06-21T07:16:09.547Z,2.50
2018-06-21T07:18:41.684Z,2.53
2018-06-21T07:21:13.577Z,3.00
2018-06-21T07:23:44.486Z,3.03
2018-06-21T07:26:16.667Z,2.60
2018-06-21T07:28:47.757Z,2.30
2018-06-21T07:31:19.723Z,3.30
2018-06-21T07:33:51.565Z,3.20
2018-06-21T07:36:23.836Z,2.90
2018-06-21T07:39:07.838Z,2.90
2018-06-21T07:41:50.369Z,3.47
2018-06-21T07:44:22.642Z,3.40
2018-06-21T07:46:54.590Z,3.47
2018-06-21T07:49:26.652Z,3.20
2018-06-21T07:51:58.579Z,3.37
2018-06-21T07:54:28.990Z,3.77
2018-06-21T07:57:00.985Z,3.10
2018-06-21T07:59:32.463Z,3.23
2018-06-21T08:02:00.767Z,3.50
2018-06-21T08:04:29.033Z,3.10
2018-06-21T08:06:57.360Z,3.83
2018-06-21T08:09:25.636Z,3.60
2018-06-21T08:11:53.941Z,3.27
2018-06-21T08:14:22.299Z,3.73
2018-06-21T08:16:50.681Z,4.10
2018-06-21T08:19:18.958Z,3.80
2018-06-21T08:21:47.266Z,3.67
2018-06-21T08:24:15.574Z,4.10
2018-06-21T08:26:43.910Z,3.77
2018-06-21T08:29:12.235Z,3.97
2018-06-21T08:31:40.845Z,3.50
2018-06-21T08:34:09.166Z,3.47
2018-06-21T08:36:37.461Z,3.40
2018-06-21T08:39:06.604Z,3.73
2018-06-21T08:41:35.538Z,3.83
2018-06-21T08:44:03.918Z,3.47
2018-06-21T08:46:32.779Z,3.50
2018-06-21T08:49:01.257Z,4.63
2018-06-21T08:51:29.553Z,3.80
2018-06-21T08:53:57.885Z,4.00
2018-06-21T08:56:26.204Z,4.00
2018-06-21T08:58:54.511Z,4.80
2018-06-21T09:01:22.802Z,3.40
2018-06-21T09:03:51.124Z,3.03
2018-06-21T09:06:19.417Z,3.50
2018-06-21T09:08:47.736Z,3.33
2018-06-21T09:11:16.014Z,3.87
2018-06-21T09:13:44.310Z,3.50
2018-06-21T09:16:12.768Z,3.00
2018-06-21T09:18:41.321Z,3.57
2018-06-21T09:21:09.621Z,3.20
2018-06-21T09:23:37.919Z,3.40
2018-06-21T09:26:06.222Z,3.60
2018-06-21T09:28:34.506Z,2.80
2018-06-21T09:31:02.847Z,3.10
2018-06-21T09:33:31.167Z,2.67
2018-06-21T09:35:59.459Z,3.40
2018-06-21T09:38:33.145Z,3.10
2018-06-21T09:41:06.818Z,2.93
2018-06-21T09:43:50.289Z,3.30
2018-06-21T09:46:14.036Z,3.30
2018-06-21T09:48:46.759Z,2.80
2018-06-21T09:51:15.088Z,3.07
2018-06-21T09:53:43.370Z,2.83
2018-06-21T09:56:11.665Z,3.00
2018-06-21T09:58:40.054Z,3.00
2018-06-21T10:01:08.409Z,2.90
2018-06-21T10:03:36.718Z,2.97
2018-06-21T10:06:05.061Z,2.90
2018-06-21T10:08:33.375Z,3.07
2018-06-21T10:11:01.681Z,3.23
2018-06-21T10:13:29.971Z,3.43
2018-06-21T10:15:58.288Z,2.97
2018-06-21T10:18:26.579Z,2.50
2018-06-21T10:20:54.898Z,3.10
2018-06-21T10:23:23.218Z,3.10
2018-06-21T10:25:51.494Z,3.03
2018-06-21T10:28:19.791Z,3.07
2018-06-21T10:30:48.090Z,2.90
2018-06-21T10:33:16.394Z,2.97
2018-06-21T10:35:45.580Z,2.87
2018-06-21T10:38:13.882Z,3.30
2018-06-21T10:40:42.240Z,3.00
2018-06-21T10:43:10.522Z,2.90
2018-06-21T10:45:38.826Z,2.60
2018-06-21T10:48:07.122Z,3.50
2018-06-21T10:50:35.454Z,2.70
2018-06-21T10:53:03.747Z,2.80
2018-06-21T10:55:32.079Z,2.73
2018-06-21T10:58:00.378Z,3.20
2018-06-21T11:00:28.698Z,3.43
2018-06-21T11:02:57.019Z,2.90
2018-06-21T11:05:25.327Z,3.43
2018-06-21T11:07:53.850Z,3.30
2018-06-21T11:10:22.152Z,2.73
2018-06-21T11:12:50.472Z,3.13
2018-06-21T11:15:18.775Z,3.20
2018-06-21T11:17:47.106Z,2.93
2018-06-21T11:20:15.409Z,2.90
2018-06-21T11:22:43.731Z,3.27
2018-06-21T11:25:12.009Z,3.53
2018-06-21T11:27:40.337Z,2.80
2018-06-21T11:30:08.617Z,3.00
2018-06-21T11:32:36.917Z,2.60
2018-06-21T11:35:05.255Z,2.70
2018-06-21T11:37:33.657Z,2.60
2018-06-21T11:40:01.952Z,3.17
2018-06-21T11:42:30.263Z,3.00
2018-06-21T11:44:58.569Z,2.90
2018-06-21T11:47:26.959Z,3.17
2018-06-21T11:49:55.263Z,2.80
2018-06-21T11:52:23.643Z,2.50
2018-06-21T11:54:51.949Z,2.40
2018-06-21T11:57:20.267Z,2.70
2018-06-21T11:59:48.553Z,2.73
2018-06-21T12:02:16.849Z,2.30
2018-06-21T12:04:45.271Z,2.53
2018-06-21T12:07:14.038Z,3.00
2018-06-21T12:09:42.346Z,3.57
2018-06-21T12:12:10.638Z,2.83
2018-06-21T12:14:38.961Z,2.60
2018-06-21T12:17:07.311Z,2.50
2018-06-21T12:19:35.629Z,2.47
2018-06-21T12:22:04.004Z,2.20
2018-06-21T12:24:32.321Z,1.97
2018-06-21T12:27:00.660Z,2.17
2018-06-21T12:29:29.284Z,2.67
2018-06-21T12:31:58.568Z,2.03
2018-06-21T12:34:26.899Z,2.10
2018-06-21T12:36:55.212Z,2.00
2018-06-21T12:39:23.554Z,1.70
2018-06-21T12:41:51.819Z,2.03
2018-06-21T12:44:20.127Z,2.03
2018-06-21T12:46:48.458Z,1.60
2018-06-21T12:49:16.948Z,1.40
2018-06-21T12:51:45.226Z,2.30
2018-06-21T12:54:13.545Z,1.57
2018-06-21T12:56:41.851Z,1.60
2018-06-21T12:59:10.140Z,1.77
2018-06-21T13:01:38.454Z,2.30
2018-06-21T13:04:06.722Z,1.70
2018-06-21T13:06:35.093Z,1.63
2018-06-21T13:09:08.875Z,1.80
2018-06-21T13:12:46.930Z,1.30
2018-06-21T13:15:15.231Z,1.73
2018-06-21T13:17:43.531Z,1.83
2018-06-21T13:20:11.880Z,1.93
2018-06-21T13:22:40.224Z,2.30
2018-06-21T13:25:08.596Z,1.70
2018-06-21T13:27:36.978Z,1.40
2018-06-21T13:30:05.901Z,1.60
2018-06-21T13:32:34.227Z,1.60
2018-06-21T13:35:02.535Z,2.23
2018-06-21T13:37:30.859Z,1.83
2018-06-21T13:39:59.161Z,1.43
2018-06-21T13:42:27.469Z,1.67
2018-06-21T13:44:55.755Z,1.60
2018-06-21T13:47:24.570Z,2.40
2018-06-21T13:49:52.958Z,1.90
2018-06-21T13:52:21.262Z,1.50
2018-06-21T13:54:49.552Z,1.37
2018-06-21T13:57:17.861Z,1.73
2018-06-21T13:59:46.569Z,1.63
2018-06-21T14:02:14.855Z,1.40
2018-06-21T14:04:43.223Z,2.00
2018-06-21T14:07:11.538Z,1.70
2018-06-21T14:09:39.858Z,1.43
2018-06-21T14:12:08.186Z,1.53
2018-06-21T14:14:36.486Z,1.30
2018-06-21T14:17:04.953Z,1.43
2018-06-21T14:19:33.240Z,2.10
2018-06-21T14:22:01.661Z,1.33
2018-06-21T14:24:29.978Z,1.70
2018-06-21T14:26:58.291Z,1.57
2018-06-21T14:29:26.589Z,1.70
2018-06-21T14:31:55.097Z,1.50
2018-06-21T14:34:23.378Z,1.37
2018-06-21T14:36:51.722Z,1.50
2018-06-21T14:39:20.001Z,1.50
2018-06-21T14:41:48.331Z,1.60
2018-06-21T14:44:16.643Z,2.00
2018-06-21T14:46:45.035Z,1.87
2018-06-21T14:49:13.351Z,1.73
2018-06-21T14:51:41.905Z,1.80
2018-06-21T14:54:10.191Z,1.73
2018-06-21T14:56:38.542Z,2.23
2018-06-21T14:59:06.853Z,1.97
2018-06-21T15:01:35.130Z,2.50
2018-06-21T15:04:03.702Z,2.10
2018-06-21T15:06:32.024Z,2.20
2018-06-21T15:09:00.342Z,1.70
2018-06-21T15:11:28.630Z,2.37
2018-06-21T15:13:56.954Z,1.90
2018-06-21T15:16:25.271Z,2.13
2018-06-21T15:18:53.601Z,2.23
2018-06-21T15:21:21.885Z,1.70
2018-06-21T15:23:50.220Z,2.30
2018-06-21T15:26:19.388Z,2.10
2018-06-21T15:28:47.775Z,1.77
2018-06-21T15:31:16.074Z,1.80
2018-06-21T15:33:44.393Z,2.10
2018-06-21T15:36:12.696Z,2.77
2018-06-21T15:38:41.013Z,1.53
2018-06-21T15:41:09.298Z,2.00
2018-06-21T15:43:37.643Z,1.53
2018-06-21T15:46:05.933Z,1.50
2018-06-21T15:48:34.266Z,1.73
2018-06-21T15:51:02.573Z,1.50
2018-06-21T15:53:30.898Z,1.50
2018-06-21T15:55:59.223Z,1.80
2018-06-21T15:58:27.915Z,1.50
2018-06-21T16:00:56.203Z,1.67
2018-06-21T16:03:24.506Z,1.83
2018-06-21T16:05:52.869Z,1.57
2018-06-21T16:08:21.150Z,1.83
2018-06-21T16:10:49.457Z,1.50
2018-06-21T16:13:18.136Z,1.60
2018-06-21T16:15:48.113Z,1.20
2018-06-21T16:18:16.539Z,1.63
2018-06-21T16:20:44.895Z,1.80
2018-06-21T16:23:13.370Z,1.30
2018-06-21T16:25:41.682Z,2.03
2018-06-21T16:28:10.053Z,1.90
2018-06-21T16:30:38.485Z,1.40
2018-06-21T16:33:07.085Z,1.77
2018-06-21T16:35:35.385Z,1.63
2018-06-21T16:38:03.816Z,1.73
2018-06-21T16:40:32.141Z,1.60
2018-06-21T16:43:00.448Z,1.57
2018-06-21T16:45:28.766Z,1.70
2018-06-21T16:47:57.398Z,1.80
2018-06-21T16:50:25.719Z,2.00
2018-06-21T16:52:54.240Z,1.87
2018-06-21T16:55:22.559Z,1.60
2018-06-21T16:57:50.870Z,1.47
2018-06-21T17:00:19.186Z,2.23
2018-06-21T17:02:47.489Z,2.30
2018-06-21T17:05:16.211Z,2.40
2018-06-21T17:07:44.600Z,1.70
2018-06-21T17:10:12.901Z,2.77
2018-06-21T17:12:41.223Z,2.47
2018-06-21T17:15:09.664Z,2.20
2018-06-21T17:17:38.138Z,2.60
2018-06-21T17:20:06.450Z,1.93
2018-06-21T17:22:34.887Z,1.47
2018-06-21T17:25:03.382Z,2.10
2018-06-21T17:27:31.705Z,2.20
2018-06-21T17:30:00.017Z,2.03
2018-06-21T17:32:28.360Z,1.80
2018-06-21T17:34:56.654Z,1.97
2018-06-21T17:37:25.146Z,1.53
2018-06-21T17:39:53.449Z,1.70
2018-06-21T17:42:21.738Z,2.03
2018-06-21T17:44:50.123Z,1.93
2018-06-21T17:47:18.495Z,1.43
2018-06-21T17:49:46.784Z,1.63
2018-06-21T17:52:15.085Z,1.70
2018-06-21T17:54:43.527Z,1.60
2018-06-21T17:57:11.861Z,1.67
2018-06-21T17:59:40.154Z,1.43
2018-06-21T18:02:08.453Z,1.50
2018-06-21T18:04:36.854Z,2.57
2018-06-21T18:07:05.208Z,1.73
2018-06-21T18:09:33.537Z,1.57
2018-06-21T18:12:01.856Z,1.50
2018-06-21T18:14:30.591Z,2.57
2018-06-21T18:16:58.941Z,1.70
2018-06-21T18:19:27.300Z,1.67
2018-06-21T18:21:55.669Z,1.60
2018-06-21T18:24:24.198Z,2.03
2018-06-21T18:26:52.947Z,2.00
2018-06-21T18:29:21.310Z,1.43
2018-06-21T18:31:49.684Z,1.70
2018-06-21T18:34:17.975Z,1.27
2018-06-21T18:36:46.497Z,1.87
2018-06-21T18:39:14.816Z,1.50
2018-06-21T18:41:43.310Z,1.70
2018-06-21T18:44:11.722Z,1.90
2018-06-21T18:46:40.301Z,2.03
2018-06-21T18:49:08.616Z,1.83
2018-06-21T18:51:36.952Z,2.27
2018-06-21T18:54:05.437Z,1.63
2018-06-21T18:56:33.807Z,1.50
2018-06-21T18:59:02.135Z,1.70
2018-06-21T19:01:30.447Z,1.43
2018-06-21T19:03:59.210Z,1.50
2018-06-21T19:06:32.735Z,2.17
2018-06-21T19:09:06.467Z,2.00
2018-06-21T19:11:40.035Z,1.43
2018-06-21T19:14:08.369Z,1.70
2018-06-21T19:16:36.699Z,1.70
2018-06-21T19:19:05.131Z,1.47
2018-06-21T19:21:33.407Z,1.13
2018-06-21T19:24:01.731Z,1.70
2018-06-21T19:26:30.106Z,1.10
2018-06-21T19:28:58.447Z,1.77
2018-06-21T19:31:26.734Z,2.03
2018-06-21T19:33:55.062Z,2.33
2018-06-21T19:36:23.354Z,1.73
2018-06-21T19:38:51.667Z,2.23
2018-06-21T19:41:19.966Z,1.40
2018-06-21T19:43:48.278Z,2.20
2018-06-21T19:46:16.566Z,1.80
2018-06-21T19:48:44.921Z,2.10
2018-06-21T19:51:13.222Z,1.97
2018-06-21T19:53:41.640Z,2.20
2018-06-21T19:56:09.960Z,2.27
2018-06-21T19:58:38.286Z,2.40
2018-06-21T20:01:06.580Z,2.00
2018-06-21T20:03:34.871Z,1.50
2018-06-21T20:06:03.192Z,1.47
2018-06-21T20:08:31.513Z,1.63
2018-06-21T20:11:05.096Z,2.37
2018-06-21T20:13:38.917Z,2.03
2018-06-21T20:16:07.341Z,2.27
2018-06-21T20:18:35.639Z,2.43
2018-06-21T20:21:03.983Z,1.90
2018-06-21T20:23:32.263Z,1.80
2018-06-21T20:26:00.605Z,2.17
2018-06-21T20:28:28.901Z,2.00
2018-06-21T20:30:57.214Z,1.70
2018-06-21T20:33:25.514Z,1.63
2018-06-21T20:35:53.839Z,1.90
2018-06-21T20:38:22.205Z,1.70
2018-06-21T20:40:50.452Z,2.30
2018-06-21T20:43:18.772Z,1.97
2018-06-21T20:45:47.091Z,2.30
2018-06-21T20:48:15.414Z,2.03
2018-06-21T20:50:43.860Z,1.50
2018-06-21T20:53:12.147Z,1.90
2018-06-21T20:55:40.451Z,1.87
2018-06-21T20:58:08.783Z,2.00
2018-06-21T21:00:37.107Z,1.60
2018-06-21T21:03:05.422Z,3.17
2018-06-21T21:05:33.729Z,1.90
2018-06-21T21:08:02.014Z,2.50
2018-06-21T21:10:30.293Z,1.67
2018-06-21T21:12:58.598Z,1.63
2018-06-21T21:15:26.890Z,1.80
2018-06-21T21:17:55.218Z,1.60
2018-06-21T21:20:23.489Z,2.53
2018-06-21T21:22:51.808Z,3.03
2018-06-21T21:25:20.110Z,2.70
2018-06-21T21:27:48.414Z,1.70
2018-06-21T21:30:16.716Z,2.43
2018-06-21T21:32:45.027Z,2.03
2018-06-21T21:35:13.315Z,2.47
2018-06-21T21:37:41.620Z,1.93
2018-06-21T21:40:09.909Z,2.10
2018-06-21T21:42:38.910Z,2.63
2018-06-21T21:45:07.348Z,2.17
2018-06-21T21:47:35.679Z,2.17
2018-06-21T21:50:03.954Z,1.73
2018-06-21T21:52:32.295Z,2.00
2018-06-21T21:55:00.582Z,1.77
2018-06-21T21:57:28.896Z,1.70
2018-06-21T21:59:57.189Z,2.07
2018-06-21T22:02:25.534Z,1.90
2018-06-21T22:04:53.798Z,2.00
2018-06-21T22:07:22.136Z,1.87
2018-06-21T22:09:50.411Z,1.37
2018-06-21T22:12:18.696Z,1.97
2018-06-21T22:14:47.011Z,1.60
2018-06-21T22:17:15.329Z,2.00
2018-06-21T22:19:43.628Z,1.37
2018-06-21T22:22:11.894Z,1.70
2018-06-21T22:24:40.263Z,1.87
2018-06-21T22:27:08.560Z,2.20
2018-06-21T22:29:36.862Z,1.63
2018-06-21T22:32:05.134Z,1.90
2018-06-21T22:34:33.483Z,1.57
2018-06-21T22:37:01.774Z,2.00
2018-06-21T22:39:30.079Z,3.50
2018-06-21T22:41:58.369Z,1.83
2018-06-21T22:44:26.688Z,1.87
2018-06-21T22:46:54.969Z,1.77
2018-06-21T22:49:23.266Z,1.77
2018-06-21T22:51:51.546Z,2.17
2018-06-21T22:54:19.875Z,1.67
2018-06-21T22:56:48.145Z,1.93
2018-06-21T22:59:16.445Z,1.70
2018-06-21T23:01:44.734Z,2.00
2018-06-21T23:04:13.043Z,1.77
2018-06-21T23:06:41.313Z,2.00
2018-06-21T23:09:09.623Z,2.37
2018-06-21T23:11:37.898Z,1.80
2018-06-21T23:14:06.211Z,2.00
2018-06-21T23:16:34.541Z,1.57
2018-06-21T23:19:08.285Z,2.07
2018-06-21T23:21:36.565Z,2.17
2018-06-21T23:24:06.513Z,2.17
2018-06-21T23:26:34.785Z,1.70
2018-06-21T23:29:03.142Z,2.00
2018-06-21T23:31:31.431Z,1.87
2018-06-21T23:33:59.714Z,1.50
2018-06-21T23:36:28.028Z,2.30
2018-06-21T23:38:56.325Z,2.00
2018-06-21T23:41:24.659Z,1.80
2018-06-21T23:43:52.934Z,1.67
2018-06-21T23:46:21.275Z,1.87
2018-06-21T23:48:49.546Z,2.47
2018-06-21T23:51:17.862Z,1.63
2018-06-21T23:53:46.141Z,1.80
2018-06-21T23:56:14.466Z,2.17
2018-06-21T23:58:42.754Z,2.93
